sensor_id;sensor_type;location;lat;lon;timestamp;P1;durP1;ratioP1;P2;durP2;ratioP2
17024;SDS011;8629;42.496;25.620;2023-06-04T00:02:18;4.73;;;4.30;;
17024;SDS011;8629;42.496;25.620;2023-06-04T00:04:44;4.83;;;3.93;;
17024;SDS011;8629;42.496;25.620;2023-06-04T00:07:11;4.13;;;3.80;;
17024;SDS011;8629;42.496;25.620;2023-06-04T00:09:38;5.00;;;4.33;;
17024;SDS011;8629;42.496;25.620;2023-06-04T00:12:06;4.37;;;3.87;;
17024;SDS011;8629;42.496;25.620;2023-06-04T00:14:33;4.60;;;4.17;;
17024;SDS011;8629;42.496;25.620;2023-06-04T00:17:00;4.83;;;4.30;;
17024;SDS011;8629;42.496;25.620;2023-06-04T00:19:27;6.30;;;4.97;;
17024;SDS011;8629;42.496;25.620;2023-06-04T00:21:53;3.63;;;3.43;;
17024;SDS011;8629;42.496;25.620;2023-06-04T00:24:20;4.17;;;3.87;;
17024;SDS011;8629;42.496;25.620;2023-06-04T00:26:47;4.30;;;3.87;;
17024;SDS011;8629;42.496;25.620;2023-06-04T00:29:15;4.10;;;3.80;;
17024;SDS011;8629;42.496;25.620;2023-06-04T00:31:42;8.57;;;4.30;;
17024;SDS011;8629;42.496;25.620;2023-06-04T00:34:09;4.80;;;4.40;;
17024;SDS011;8629;42.496;25.620;2023-06-04T00:36:36;5.80;;;4.47;;
17024;SDS011;8629;42.496;25.620;2023-06-04T00:39:03;5.27;;;4.40;;
17024;SDS011;8629;42.496;25.620;2023-06-04T00:41:30;5.30;;;4.63;;
17024;SDS011;8629;42.496;25.620;2023-06-04T00:43:56;4.37;;;3.80;;
17024;SDS011;8629;42.496;25.620;2023-06-04T00:46:28;6.43;;;4.23;;
17024;SDS011;8629;42.496;25.620;2023-06-04T00:48:56;4.60;;;4.20;;
17024;SDS011;8629;42.496;25.620;2023-06-04T00:51:23;4.67;;;4.27;;
17024;SDS011;8629;42.496;25.620;2023-06-04T00:53:50;5.80;;;4.10;;
17024;SDS011;8629;42.496;25.620;2023-06-04T00:56:17;4.63;;;4.23;;
17024;SDS011;8629;42.496;25.620;2023-06-04T00:58:43;4.40;;;4.00;;
17024;SDS011;8629;42.496;25.620;2023-06-04T01:01:12;5.20;;;4.70;;
17024;SDS011;8629;42.496;25.620;2023-06-04T01:03:45;6.20;;;3.97;;
17024;SDS011;8629;42.496;25.620;2023-06-04T01:06:15;4.03;;;3.67;;
17024;SDS011;8629;42.496;25.620;2023-06-04T01:08:46;4.53;;;4.13;;
17024;SDS011;8629;42.496;25.620;2023-06-04T01:11:14;5.90;;;4.57;;
17024;SDS011;8629;42.496;25.620;2023-06-04T01:13:41;4.43;;;4.13;;
17024;SDS011;8629;42.496;25.620;2023-06-04T01:16:07;4.00;;;3.70;;
17024;SDS011;8629;42.496;25.620;2023-06-04T01:18:35;5.57;;;4.53;;
17024;SDS011;8629;42.496;25.620;2023-06-04T01:21:05;4.97;;;3.97;;
17024;SDS011;8629;42.496;25.620;2023-06-04T01:23:34;5.63;;;4.70;;
17024;SDS011;8629;42.496;25.620;2023-06-04T01:26:04;5.23;;;4.80;;
17024;SDS011;8629;42.496;25.620;2023-06-04T01:28:32;6.17;;;4.70;;
17024;SDS011;8629;42.496;25.620;2023-06-04T01:31:00;5.10;;;4.50;;
17024;SDS011;8629;42.496;25.620;2023-06-04T01:33:27;4.70;;;4.30;;
17024;SDS011;8629;42.496;25.620;2023-06-04T01:35:54;4.60;;;4.20;;
17024;SDS011;8629;42.496;25.620;2023-06-04T01:38:23;8.60;;;5.33;;
17024;SDS011;8629;42.496;25.620;2023-06-04T01:40:49;6.87;;;4.83;;
17024;SDS011;8629;42.496;25.620;2023-06-04T01:43:21;5.40;;;4.63;;
17024;SDS011;8629;42.496;25.620;2023-06-04T01:45:50;4.87;;;4.40;;
17024;SDS011;8629;42.496;25.620;2023-06-04T01:48:17;5.37;;;4.67;;
17024;SDS011;8629;42.496;25.620;2023-06-04T01:50:44;5.50;;;4.43;;
17024;SDS011;8629;42.496;25.620;2023-06-04T01:53:10;5.03;;;4.53;;
17024;SDS011;8629;42.496;25.620;2023-06-04T01:55:38;5.83;;;4.27;;
17024;SDS011;8629;42.496;25.620;2023-06-04T01:58:05;6.33;;;4.73;;
17024;SDS011;8629;42.496;25.620;2023-06-04T02:00:32;11.13;;;4.67;;
17024;SDS011;8629;42.496;25.620;2023-06-04T02:02:59;5.07;;;4.57;;
17024;SDS011;8629;42.496;25.620;2023-06-04T02:05:25;5.13;;;4.70;;
17024;SDS011;8629;42.496;25.620;2023-06-04T02:07:52;5.73;;;4.63;;
17024;SDS011;8629;42.496;25.620;2023-06-04T02:10:19;4.50;;;4.10;;
17024;SDS011;8629;42.496;25.620;2023-06-04T02:12:57;5.40;;;4.33;;
17024;SDS011;8629;42.496;25.620;2023-06-04T02:15:24;7.17;;;4.17;;
17024;SDS011;8629;42.496;25.620;2023-06-04T02:17:54;4.30;;;3.97;;
17024;SDS011;8629;42.496;25.620;2023-06-04T02:20:23;6.73;;;5.37;;
17024;SDS011;8629;42.496;25.620;2023-06-04T02:22:50;5.87;;;5.27;;
17024;SDS011;8629;42.496;25.620;2023-06-04T02:25:17;5.37;;;4.87;;
17024;SDS011;8629;42.496;25.620;2023-06-04T02:27:43;35.10;;;23.70;;
17024;SDS011;8629;42.496;25.620;2023-06-04T02:30:12;13.63;;;10.40;;
17024;SDS011;8629;42.496;25.620;2023-06-04T02:32:38;6.67;;;6.03;;
17024;SDS011;8629;42.496;25.620;2023-06-04T02:35:06;5.90;;;4.40;;
17024;SDS011;8629;42.496;25.620;2023-06-04T02:37:33;4.97;;;4.23;;
17024;SDS011;8629;42.496;25.620;2023-06-04T02:39:59;8.00;;;4.13;;
17024;SDS011;8629;42.496;25.620;2023-06-04T02:42:26;6.07;;;3.77;;
17024;SDS011;8629;42.496;25.620;2023-06-04T02:44:53;4.60;;;4.20;;
17024;SDS011;8629;42.496;25.620;2023-06-04T02:47:21;6.17;;;5.57;;
17024;SDS011;8629;42.496;25.620;2023-06-04T02:49:48;9.17;;;5.60;;
17024;SDS011;8629;42.496;25.620;2023-06-04T02:52:14;6.17;;;5.60;;
17024;SDS011;8629;42.496;25.620;2023-06-04T02:54:41;6.73;;;6.13;;
17024;SDS011;8629;42.496;25.620;2023-06-04T02:57:08;6.17;;;5.67;;
17024;SDS011;8629;42.496;25.620;2023-06-04T02:59:34;9.63;;;5.87;;
17024;SDS011;8629;42.496;25.620;2023-06-04T03:02:01;7.07;;;5.37;;
17024;SDS011;8629;42.496;25.620;2023-06-04T03:04:30;4.93;;;4.50;;
17024;SDS011;8629;42.496;25.620;2023-06-04T03:07:00;6.07;;;3.90;;
17024;SDS011;8629;42.496;25.620;2023-06-04T03:09:27;7.43;;;4.97;;
17024;SDS011;8629;42.496;25.620;2023-06-04T03:11:56;5.63;;;5.10;;
17024;SDS011;8629;42.496;25.620;2023-06-04T03:14:25;7.00;;;4.23;;
17024;SDS011;8629;42.496;25.620;2023-06-04T03:16:57;5.37;;;4.47;;
17024;SDS011;8629;42.496;25.620;2023-06-04T03:19:26;5.30;;;4.40;;
17024;SDS011;8629;42.496;25.620;2023-06-04T03:21:54;5.53;;;4.00;;
17024;SDS011;8629;42.496;25.620;2023-06-04T03:24:21;4.80;;;3.57;;
17024;SDS011;8629;42.496;25.620;2023-06-04T03:26:48;4.43;;;4.03;;
17024;SDS011;8629;42.496;25.620;2023-06-04T03:29:15;6.70;;;4.30;;
17024;SDS011;8629;42.496;25.620;2023-06-04T03:31:43;4.30;;;3.90;;
17024;SDS011;8629;42.496;25.620;2023-06-04T03:34:10;5.03;;;4.03;;
17024;SDS011;8629;42.496;25.620;2023-06-04T03:36:37;5.00;;;4.50;;
17024;SDS011;8629;42.496;25.620;2023-06-04T03:39:06;6.00;;;4.20;;
17024;SDS011;8629;42.496;25.620;2023-06-04T03:41:32;4.40;;;4.00;;
17024;SDS011;8629;42.496;25.620;2023-06-04T03:43:59;10.23;;;4.70;;
17024;SDS011;8629;42.496;25.620;2023-06-04T03:46:26;4.27;;;3.90;;
17024;SDS011;8629;42.496;25.620;2023-06-04T03:48:56;6.87;;;4.13;;
17024;SDS011;8629;42.496;25.620;2023-06-04T03:51:23;5.07;;;4.67;;
17024;SDS011;8629;42.496;25.620;2023-06-04T03:53:50;5.03;;;4.23;;
17024;SDS011;8629;42.496;25.620;2023-06-04T03:56:18;5.47;;;4.00;;
17024;SDS011;8629;42.496;25.620;2023-06-04T03:58:46;4.77;;;4.37;;
17024;SDS011;8629;42.496;25.620;2023-06-04T04:01:13;4.43;;;4.03;;
17024;SDS011;8629;42.496;25.620;2023-06-04T04:03:40;5.20;;;4.30;;
17024;SDS011;8629;42.496;25.620;2023-06-04T04:06:09;6.13;;;5.53;;
17024;SDS011;8629;42.496;25.620;2023-06-04T04:08:36;6.23;;;4.70;;
17024;SDS011;8629;42.496;25.620;2023-06-04T04:11:07;5.93;;;5.33;;
17024;SDS011;8629;42.496;25.620;2023-06-04T04:13:35;8.30;;;7.30;;
17024;SDS011;8629;42.496;25.620;2023-06-04T04:16:02;5.20;;;4.50;;
17024;SDS011;8629;42.496;25.620;2023-06-04T04:18:32;13.50;;;12.17;;
17024;SDS011;8629;42.496;25.620;2023-06-04T04:20:59;23.60;;;21.37;;
17024;SDS011;8629;42.496;25.620;2023-06-04T04:23:26;24.80;;;21.53;;
17024;SDS011;8629;42.496;25.620;2023-06-04T04:25:54;6.73;;;5.70;;
17024;SDS011;8629;42.496;25.620;2023-06-04T04:28:23;5.90;;;4.73;;
17024;SDS011;8629;42.496;25.620;2023-06-04T04:30:55;4.90;;;4.50;;
17024;SDS011;8629;42.496;25.620;2023-06-04T04:33:23;7.73;;;4.83;;
17024;SDS011;8629;42.496;25.620;2023-06-04T04:35:50;4.77;;;4.37;;
17024;SDS011;8629;42.496;25.620;2023-06-04T04:38:18;9.83;;;5.50;;
17024;SDS011;8629;42.496;25.620;2023-06-04T04:40:48;5.30;;;4.80;;
17024;SDS011;8629;42.496;25.620;2023-06-04T04:43:17;4.60;;;4.20;;
17024;SDS011;8629;42.496;25.620;2023-06-04T04:45:55;4.80;;;4.33;;
17024;SDS011;8629;42.496;25.620;2023-06-04T04:48:23;8.23;;;4.60;;
17024;SDS011;8629;42.496;25.620;2023-06-04T04:50:50;7.30;;;4.53;;
17024;SDS011;8629;42.496;25.620;2023-06-04T04:53:17;6.27;;;4.40;;
17024;SDS011;8629;42.496;25.620;2023-06-04T04:55:44;8.83;;;4.37;;
17024;SDS011;8629;42.496;25.620;2023-06-04T04:58:11;4.60;;;4.30;;
17024;SDS011;8629;42.496;25.620;2023-06-04T05:00:38;6.60;;;5.20;;
17024;SDS011;8629;42.496;25.620;2023-06-04T05:03:06;6.03;;;4.57;;
17024;SDS011;8629;42.496;25.620;2023-06-04T05:05:33;7.77;;;5.63;;
17024;SDS011;8629;42.496;25.620;2023-06-04T05:08:00;5.57;;;4.90;;
17024;SDS011;8629;42.496;25.620;2023-06-04T05:10:26;6.57;;;4.80;;
17024;SDS011;8629;42.496;25.620;2023-06-04T05:12:53;4.30;;;4.00;;
17024;SDS011;8629;42.496;25.620;2023-06-04T05:15:20;6.13;;;4.57;;
17024;SDS011;8629;42.496;25.620;2023-06-04T05:17:47;5.03;;;4.00;;
17024;SDS011;8629;42.496;25.620;2023-06-04T05:20:15;5.60;;;5.10;;
17024;SDS011;8629;42.496;25.620;2023-06-04T05:22:42;5.80;;;5.30;;
17024;SDS011;8629;42.496;25.620;2023-06-04T05:25:10;6.80;;;5.00;;
17024;SDS011;8629;42.496;25.620;2023-06-04T05:27:37;8.37;;;5.67;;
17024;SDS011;8629;42.496;25.620;2023-06-04T05:30:06;5.20;;;4.67;;
17024;SDS011;8629;42.496;25.620;2023-06-04T05:32:33;5.20;;;4.27;;
17024;SDS011;8629;42.496;25.620;2023-06-04T05:35:06;8.80;;;4.63;;
17024;SDS011;8629;42.496;25.620;2023-06-04T05:37:35;4.87;;;4.47;;
17024;SDS011;8629;42.496;25.620;2023-06-04T05:40:03;5.30;;;4.33;;
17024;SDS011;8629;42.496;25.620;2023-06-04T05:42:32;7.63;;;5.23;;
17024;SDS011;8629;42.496;25.620;2023-06-04T05:44:59;7.53;;;4.93;;
17024;SDS011;8629;42.496;25.620;2023-06-04T05:47:26;5.27;;;4.87;;
17024;SDS011;8629;42.496;25.620;2023-06-04T05:49:55;4.93;;;4.40;;
17024;SDS011;8629;42.496;25.620;2023-06-04T05:52:22;5.60;;;4.13;;
17024;SDS011;8629;42.496;25.620;2023-06-04T05:54:50;4.63;;;4.17;;
17024;SDS011;8629;42.496;25.620;2023-06-04T05:57:17;6.70;;;4.90;;
17024;SDS011;8629;42.496;25.620;2023-06-04T05:59:44;7.33;;;5.10;;
17024;SDS011;8629;42.496;25.620;2023-06-04T06:02:11;8.83;;;5.07;;
17024;SDS011;8629;42.496;25.620;2023-06-04T06:04:39;5.90;;;5.40;;
17024;SDS011;8629;42.496;25.620;2023-06-04T06:07:06;17.13;;;14.50;;
17024;SDS011;8629;42.496;25.620;2023-06-04T06:09:33;21.93;;;19.57;;
17024;SDS011;8629;42.496;25.620;2023-06-04T06:12:02;10.20;;;9.23;;
17024;SDS011;8629;42.496;25.620;2023-06-04T06:14:30;7.07;;;5.30;;
17024;SDS011;8629;42.496;25.620;2023-06-04T06:16:57;6.37;;;4.97;;
17024;SDS011;8629;42.496;25.620;2023-06-04T06:19:25;5.53;;;5.03;;
17024;SDS011;8629;42.496;25.620;2023-06-04T06:21:52;7.97;;;5.20;;
17024;SDS011;8629;42.496;25.620;2023-06-04T06:24:21;5.43;;;4.83;;
17024;SDS011;8629;42.496;25.620;2023-06-04T06:26:49;7.77;;;5.83;;
17024;SDS011;8629;42.496;25.620;2023-06-04T06:29:17;6.00;;;5.50;;
17024;SDS011;8629;42.496;25.620;2023-06-04T06:31:43;9.50;;;5.80;;
17024;SDS011;8629;42.496;25.620;2023-06-04T06:34:10;9.23;;;8.07;;
17024;SDS011;8629;42.496;25.620;2023-06-04T06:36:37;10.43;;;9.33;;
17024;SDS011;8629;42.496;25.620;2023-06-04T06:39:04;14.43;;;13.03;;
17024;SDS011;8629;42.496;25.620;2023-06-04T06:41:31;11.60;;;10.47;;
17024;SDS011;8629;42.496;25.620;2023-06-04T06:43:57;7.67;;;6.97;;
17024;SDS011;8629;42.496;25.620;2023-06-04T06:46:26;7.00;;;5.20;;
17024;SDS011;8629;42.496;25.620;2023-06-04T06:48:52;5.40;;;4.90;;
17024;SDS011;8629;42.496;25.620;2023-06-04T06:51:19;13.20;;;5.90;;
17024;SDS011;8629;42.496;25.620;2023-06-04T06:53:46;4.60;;;4.20;;
17024;SDS011;8629;42.496;25.620;2023-06-04T06:56:15;12.80;;;6.80;;
17024;SDS011;8629;42.496;25.620;2023-06-04T06:58:43;7.50;;;6.60;;
17024;SDS011;8629;42.496;25.620;2023-06-04T07:01:12;11.13;;;9.73;;
17024;SDS011;8629;42.496;25.620;2023-06-04T07:03:42;6.47;;;5.87;;
17024;SDS011;8629;42.496;25.620;2023-06-04T07:06:09;6.63;;;5.93;;
17024;SDS011;8629;42.496;25.620;2023-06-04T07:08:36;6.23;;;5.63;;
17024;SDS011;8629;42.496;25.620;2023-06-04T07:11:05;9.23;;;7.90;;
17024;SDS011;8629;42.496;25.620;2023-06-04T07:13:32;6.87;;;5.83;;
17024;SDS011;8629;42.496;25.620;2023-06-04T07:16:00;9.03;;;8.23;;
17024;SDS011;8629;42.496;25.620;2023-06-04T07:18:27;17.40;;;14.50;;
17024;SDS011;8629;42.496;25.620;2023-06-04T07:20:55;16.30;;;12.83;;
17024;SDS011;8629;42.496;25.620;2023-06-04T07:23:24;9.83;;;9.03;;
17024;SDS011;8629;42.496;25.620;2023-06-04T07:25:51;10.33;;;9.43;;
17024;SDS011;8629;42.496;25.620;2023-06-04T07:28:17;9.57;;;8.43;;
17024;SDS011;8629;42.496;25.620;2023-06-04T07:30:44;10.17;;;8.67;;
17024;SDS011;8629;42.496;25.620;2023-06-04T07:33:11;8.00;;;7.20;;
17024;SDS011;8629;42.496;25.620;2023-06-04T07:35:38;6.87;;;6.30;;
17024;SDS011;8629;42.496;25.620;2023-06-04T07:38:07;7.17;;;6.57;;
17024;SDS011;8629;42.496;25.620;2023-06-04T07:40:35;9.70;;;6.63;;
17024;SDS011;8629;42.496;25.620;2023-06-04T07:43:03;7.43;;;6.83;;
17024;SDS011;8629;42.496;25.620;2023-06-04T07:45:30;7.83;;;7.10;;
17024;SDS011;8629;42.496;25.620;2023-06-04T07:47:57;9.77;;;8.87;;
17024;SDS011;8629;42.496;25.620;2023-06-04T07:50:24;8.47;;;7.50;;
17024;SDS011;8629;42.496;25.620;2023-06-04T07:52:51;6.90;;;6.30;;
17024;SDS011;8629;42.496;25.620;2023-06-04T07:55:20;6.37;;;5.87;;
17024;SDS011;8629;42.496;25.620;2023-06-04T07:57:46;9.33;;;6.40;;
17024;SDS011;8629;42.496;25.620;2023-06-04T08:00:14;9.73;;;8.73;;
17024;SDS011;8629;42.496;25.620;2023-06-04T08:02:42;10.57;;;7.83;;
17024;SDS011;8629;42.496;25.620;2023-06-04T08:05:10;10.63;;;9.63;;
17024;SDS011;8629;42.496;25.620;2023-06-04T08:07:38;7.53;;;6.87;;
17024;SDS011;8629;42.496;25.620;2023-06-04T08:10:06;8.00;;;7.30;;
17024;SDS011;8629;42.496;25.620;2023-06-04T08:12:35;11.23;;;10.27;;
17024;SDS011;8629;42.496;25.620;2023-06-04T08:15:02;11.70;;;10.70;;
17024;SDS011;8629;42.496;25.620;2023-06-04T08:17:29;11.17;;;9.80;;
17024;SDS011;8629;42.496;25.620;2023-06-04T08:19:56;15.53;;;14.13;;
17024;SDS011;8629;42.496;25.620;2023-06-04T08:22:23;15.43;;;14.07;;
17024;SDS011;8629;42.496;25.620;2023-06-04T08:24:50;24.30;;;21.97;;
17024;SDS011;8629;42.496;25.620;2023-06-04T08:27:16;13.73;;;12.47;;
17024;SDS011;8629;42.496;25.620;2023-06-04T08:29:44;8.60;;;7.50;;
17024;SDS011;8629;42.496;25.620;2023-06-04T08:32:11;6.93;;;6.27;;
17024;SDS011;8629;42.496;25.620;2023-06-04T08:34:38;6.10;;;5.50;;
17024;SDS011;8629;42.496;25.620;2023-06-04T08:37:06;6.73;;;6.13;;
17024;SDS011;8629;42.496;25.620;2023-06-04T08:39:33;7.30;;;6.67;;
17024;SDS011;8629;42.496;25.620;2023-06-04T08:42:00;6.87;;;6.27;;
17024;SDS011;8629;42.496;25.620;2023-06-04T08:44:28;7.27;;;6.60;;
17024;SDS011;8629;42.496;25.620;2023-06-04T08:47:01;7.37;;;6.77;;
17024;SDS011;8629;42.496;25.620;2023-06-04T08:49:33;8.63;;;5.20;;
17024;SDS011;8629;42.496;25.620;2023-06-04T08:52:01;6.43;;;5.90;;
17024;SDS011;8629;42.496;25.620;2023-06-04T08:54:29;7.57;;;5.63;;
17024;SDS011;8629;42.496;25.620;2023-06-04T08:56:56;5.17;;;4.77;;
17024;SDS011;8629;42.496;25.620;2023-06-04T08:59:23;5.80;;;5.23;;
17024;SDS011;8629;42.496;25.620;2023-06-04T09:01:51;6.40;;;5.80;;
17024;SDS011;8629;42.496;25.620;2023-06-04T09:04:20;7.13;;;5.53;;
17024;SDS011;8629;42.496;25.620;2023-06-04T09:06:47;7.63;;;5.50;;
17024;SDS011;8629;42.496;25.620;2023-06-04T09:09:14;5.57;;;5.10;;
17024;SDS011;8629;42.496;25.620;2023-06-04T09:11:45;5.20;;;4.80;;
17024;SDS011;8629;42.496;25.620;2023-06-04T09:14:14;6.53;;;6.03;;
17024;SDS011;8629;42.496;25.620;2023-06-04T09:16:43;5.90;;;5.37;;
17024;SDS011;8629;42.496;25.620;2023-06-04T09:19:10;5.93;;;5.43;;
17024;SDS011;8629;42.496;25.620;2023-06-04T09:21:47;7.10;;;5.70;;
17024;SDS011;8629;42.496;25.620;2023-06-04T09:24:17;5.70;;;5.23;;
17024;SDS011;8629;42.496;25.620;2023-06-04T09:26:44;6.67;;;6.03;;
17024;SDS011;8629;42.496;25.620;2023-06-04T09:29:11;8.33;;;6.07;;
17024;SDS011;8629;42.496;25.620;2023-06-04T09:31:38;5.90;;;5.37;;
17024;SDS011;8629;42.496;25.620;2023-06-04T09:34:07;7.30;;;5.37;;
17024;SDS011;8629;42.496;25.620;2023-06-04T09:36:34;7.00;;;6.33;;
17024;SDS011;8629;42.496;25.620;2023-06-04T09:39:13;7.97;;;5.53;;
17024;SDS011;8629;42.496;25.620;2023-06-04T09:41:41;6.07;;;5.47;;
17024;SDS011;8629;42.496;25.620;2023-06-04T09:44:10;6.60;;;5.80;;
17024;SDS011;8629;42.496;25.620;2023-06-04T09:46:41;6.60;;;5.87;;
17024;SDS011;8629;42.496;25.620;2023-06-04T09:49:10;8.80;;;7.03;;
17024;SDS011;8629;42.496;25.620;2023-06-04T09:51:46;9.00;;;6.63;;
17024;SDS011;8629;42.496;25.620;2023-06-04T09:54:23;7.27;;;6.40;;
17024;SDS011;8629;42.496;25.620;2023-06-04T09:57:03;6.90;;;6.27;;
17024;SDS011;8629;42.496;25.620;2023-06-04T09:59:31;7.23;;;6.53;;
17024;SDS011;8629;42.496;25.620;2023-06-04T10:02:00;7.10;;;6.13;;
17024;SDS011;8629;42.496;25.620;2023-06-04T10:04:26;6.90;;;5.70;;
17024;SDS011;8629;42.496;25.620;2023-06-04T10:06:58;6.10;;;5.50;;
17024;SDS011;8629;42.496;25.620;2023-06-04T10:09:28;7.07;;;6.47;;
17024;SDS011;8629;42.496;25.620;2023-06-04T10:11:56;8.43;;;7.40;;
17024;SDS011;8629;42.496;25.620;2023-06-04T10:14:27;8.87;;;6.47;;
17024;SDS011;8629;42.496;25.620;2023-06-04T10:16:58;6.67;;;6.17;;
17024;SDS011;8629;42.496;25.620;2023-06-04T10:19:26;7.80;;;5.87;;
17024;SDS011;8629;42.496;25.620;2023-06-04T10:21:54;8.90;;;6.10;;
17024;SDS011;8629;42.496;25.620;2023-06-04T10:24:21;7.00;;;6.40;;
17024;SDS011;8629;42.496;25.620;2023-06-04T10:26:53;9.27;;;7.37;;
17024;SDS011;8629;42.496;25.620;2023-06-04T10:29:20;7.60;;;7.00;;
17024;SDS011;8629;42.496;25.620;2023-06-04T10:31:48;7.30;;;6.20;;
17024;SDS011;8629;42.496;25.620;2023-06-04T10:34:15;9.13;;;6.00;;
17024;SDS011;8629;42.496;25.620;2023-06-04T10:36:43;8.47;;;7.27;;
17024;SDS011;8629;42.496;25.620;2023-06-04T10:39:10;8.50;;;6.03;;
17024;SDS011;8629;42.496;25.620;2023-06-04T10:41:38;7.07;;;6.20;;
17024;SDS011;8629;42.496;25.620;2023-06-04T10:44:07;7.47;;;6.73;;
17024;SDS011;8629;42.496;25.620;2023-06-04T10:46:38;6.80;;;6.20;;
17024;SDS011;8629;42.496;25.620;2023-06-04T10:49:08;7.43;;;6.30;;
17024;SDS011;8629;42.496;25.620;2023-06-04T10:51:35;9.83;;;6.10;;
17024;SDS011;8629;42.496;25.620;2023-06-04T10:54:05;7.30;;;6.60;;
17024;SDS011;8629;42.496;25.620;2023-06-04T10:56:36;8.17;;;6.47;;
17024;SDS011;8629;42.496;25.620;2023-06-04T10:59:14;7.33;;;6.40;;
17024;SDS011;8629;42.496;25.620;2023-06-04T11:01:41;8.13;;;6.10;;
17024;SDS011;8629;42.496;25.620;2023-06-04T11:04:17;6.63;;;5.97;;
17024;SDS011;8629;42.496;25.620;2023-06-04T11:06:47;7.00;;;6.27;;
17024;SDS011;8629;42.496;25.620;2023-06-04T11:09:14;7.93;;;5.53;;
17024;SDS011;8629;42.496;25.620;2023-06-04T11:11:42;6.87;;;4.93;;
17024;SDS011;8629;42.496;25.620;2023-06-04T11:14:09;7.23;;;6.53;;
17024;SDS011;8629;42.496;25.620;2023-06-04T11:16:39;5.60;;;5.10;;
17024;SDS011;8629;42.496;25.620;2023-06-04T11:19:06;6.07;;;5.53;;
17024;SDS011;8629;42.496;25.620;2023-06-04T11:21:33;19.13;;;6.80;;
17024;SDS011;8629;42.496;25.620;2023-06-04T11:24:01;10.07;;;5.30;;
17024;SDS011;8629;42.496;25.620;2023-06-04T11:26:30;4.83;;;4.40;;
17024;SDS011;8629;42.496;25.620;2023-06-04T11:28:57;5.93;;;4.27;;
17024;SDS011;8629;42.496;25.620;2023-06-04T11:31:24;5.13;;;4.00;;
17024;SDS011;8629;42.496;25.620;2023-06-04T11:33:52;5.40;;;4.90;;
17024;SDS011;8629;42.496;25.620;2023-06-04T11:36:22;4.90;;;4.50;;
17024;SDS011;8629;42.496;25.620;2023-06-04T11:38:54;7.00;;;4.87;;
17024;SDS011;8629;42.496;25.620;2023-06-04T11:41:24;4.67;;;4.23;;
17024;SDS011;8629;42.496;25.620;2023-06-04T11:43:51;6.53;;;5.23;;
17024;SDS011;8629;42.496;25.620;2023-06-04T11:46:17;5.00;;;4.20;;
17024;SDS011;8629;42.496;25.620;2023-06-04T11:48:45;7.23;;;4.60;;
17024;SDS011;8629;42.496;25.620;2023-06-04T11:51:13;5.93;;;5.33;;
17024;SDS011;8629;42.496;25.620;2023-06-04T11:53:40;5.70;;;5.20;;
17024;SDS011;8629;42.496;25.620;2023-06-04T11:56:07;6.70;;;5.40;;
17024;SDS011;8629;42.496;25.620;2023-06-04T11:58:34;7.87;;;5.67;;
17024;SDS011;8629;42.496;25.620;2023-06-04T12:01:01;6.73;;;6.03;;
17024;SDS011;8629;42.496;25.620;2023-06-04T12:03:34;6.00;;;5.40;;
17024;SDS011;8629;42.496;25.620;2023-06-04T12:06:09;6.53;;;5.07;;
17024;SDS011;8629;42.496;25.620;2023-06-04T12:11:28;6.03;;;5.23;;
17024;SDS011;8629;42.496;25.620;2023-06-04T12:13:59;6.07;;;5.47;;
17024;SDS011;8629;42.496;25.620;2023-06-04T12:16:29;6.23;;;5.70;;
17024;SDS011;8629;42.496;25.620;2023-06-04T12:19:05;6.37;;;5.87;;
17024;SDS011;8629;42.496;25.620;2023-06-04T12:21:33;7.43;;;5.77;;
17024;SDS011;8629;42.496;25.620;2023-06-04T12:24:08;6.30;;;5.70;;
17024;SDS011;8629;42.496;25.620;2023-06-04T12:26:35;6.07;;;5.57;;
17024;SDS011;8629;42.496;25.620;2023-06-04T12:29:09;6.63;;;6.03;;
17024;SDS011;8629;42.496;25.620;2023-06-04T12:31:38;6.90;;;6.30;;
17024;SDS011;8629;42.496;25.620;2023-06-04T12:34:05;6.93;;;5.57;;
17024;SDS011;8629;42.496;25.620;2023-06-04T12:36:32;6.70;;;6.00;;
17024;SDS011;8629;42.496;25.620;2023-06-04T12:39:00;8.43;;;6.50;;
17024;SDS011;8629;42.496;25.620;2023-06-04T12:41:29;6.27;;;5.70;;
17024;SDS011;8629;42.496;25.620;2023-06-04T12:44:00;6.97;;;6.30;;
17024;SDS011;8629;42.496;25.620;2023-06-04T12:46:30;6.63;;;6.00;;
17024;SDS011;8629;42.496;25.620;2023-06-04T12:48:57;6.40;;;5.80;;
17024;SDS011;8629;42.496;25.620;2023-06-04T12:51:24;5.90;;;5.40;;
17024;SDS011;8629;42.496;25.620;2023-06-04T12:53:51;6.03;;;5.53;;
17024;SDS011;8629;42.496;25.620;2023-06-04T12:56:21;7.53;;;5.70;;
17024;SDS011;8629;42.496;25.620;2023-06-04T12:58:49;7.43;;;6.73;;
17024;SDS011;8629;42.496;25.620;2023-06-04T13:01:16;6.33;;;5.23;;
17024;SDS011;8629;42.496;25.620;2023-06-04T13:03:43;10.60;;;6.47;;
17024;SDS011;8629;42.496;25.620;2023-06-04T13:06:09;7.27;;;6.67;;
17024;SDS011;8629;42.496;25.620;2023-06-04T13:08:36;7.73;;;6.23;;
17024;SDS011;8629;42.496;25.620;2023-06-04T13:11:04;6.80;;;6.20;;
17024;SDS011;8629;42.496;25.620;2023-06-04T13:13:31;6.70;;;6.10;;
17024;SDS011;8629;42.496;25.620;2023-06-04T13:16:01;6.60;;;5.33;;
17024;SDS011;8629;42.496;25.620;2023-06-04T13:18:28;8.33;;;5.80;;
17024;SDS011;8629;42.496;25.620;2023-06-04T13:20:54;6.57;;;5.83;;
17024;SDS011;8629;42.496;25.620;2023-06-04T13:23:21;6.00;;;5.50;;
17024;SDS011;8629;42.496;25.620;2023-06-04T13:25:48;5.93;;;5.43;;
17024;SDS011;8629;42.496;25.620;2023-06-04T13:28:15;8.33;;;6.87;;
17024;SDS011;8629;42.496;25.620;2023-06-04T13:30:42;6.77;;;5.97;;
17024;SDS011;8629;42.496;25.620;2023-06-04T13:33:11;7.43;;;6.63;;
17024;SDS011;8629;42.496;25.620;2023-06-04T13:35:38;6.57;;;5.90;;
17024;SDS011;8629;42.496;25.620;2023-06-04T13:38:05;6.93;;;5.33;;
17024;SDS011;8629;42.496;25.620;2023-06-04T13:40:33;6.73;;;6.10;;
17024;SDS011;8629;42.496;25.620;2023-06-04T13:43:00;5.50;;;5.00;;
17024;SDS011;8629;42.496;25.620;2023-06-04T13:45:27;6.27;;;5.67;;
17024;SDS011;8629;42.496;25.620;2023-06-04T13:47:54;6.67;;;6.07;;
17024;SDS011;8629;42.496;25.620;2023-06-04T13:50:25;6.63;;;5.97;;
17024;SDS011;8629;42.496;25.620;2023-06-04T13:52:52;6.43;;;5.90;;
17024;SDS011;8629;42.496;25.620;2023-06-04T13:55:20;6.00;;;5.50;;
17024;SDS011;8629;42.496;25.620;2023-06-04T13:57:47;6.83;;;6.20;;
17024;SDS011;8629;42.496;25.620;2023-06-04T14:00:14;6.63;;;6.13;;
17024;SDS011;8629;42.496;25.620;2023-06-04T14:02:41;6.07;;;5.57;;
17024;SDS011;8629;42.496;25.620;2023-06-04T14:05:08;7.53;;;5.37;;
17024;SDS011;8629;42.496;25.620;2023-06-04T14:07:38;5.73;;;5.33;;
17024;SDS011;8629;42.496;25.620;2023-06-04T14:10:05;5.70;;;5.20;;
17024;SDS011;8629;42.496;25.620;2023-06-04T14:12:32;5.73;;;5.30;;
17024;SDS011;8629;42.496;25.620;2023-06-04T14:15:00;6.00;;;5.43;;
17024;SDS011;8629;42.496;25.620;2023-06-04T14:17:27;5.17;;;4.70;;
17024;SDS011;8629;42.496;25.620;2023-06-04T14:19:54;5.73;;;5.23;;
17024;SDS011;8629;42.496;25.620;2023-06-04T14:22:20;5.33;;;4.80;;
17024;SDS011;8629;42.496;25.620;2023-06-04T14:24:49;4.60;;;4.13;;
17024;SDS011;8629;42.496;25.620;2023-06-04T14:27:15;5.07;;;4.67;;
17024;SDS011;8629;42.496;25.620;2023-06-04T14:29:42;5.87;;;4.53;;
17024;SDS011;8629;42.496;25.620;2023-06-04T14:32:09;5.43;;;4.80;;
17024;SDS011;8629;42.496;25.620;2023-06-04T14:34:39;5.00;;;4.37;;
17024;SDS011;8629;42.496;25.620;2023-06-04T14:37:05;4.63;;;4.23;;
17024;SDS011;8629;42.496;25.620;2023-06-04T14:39:32;5.10;;;4.30;;
17024;SDS011;8629;42.496;25.620;2023-06-04T14:42:02;4.97;;;4.57;;
17024;SDS011;8629;42.496;25.620;2023-06-04T14:44:30;4.13;;;3.83;;
17024;SDS011;8629;42.496;25.620;2023-06-04T14:46:57;4.43;;;3.67;;
17024;SDS011;8629;42.496;25.620;2023-06-04T14:49:24;7.73;;;4.03;;
17024;SDS011;8629;42.496;25.620;2023-06-04T14:51:51;7.33;;;5.33;;
17024;SDS011;8629;42.496;25.620;2023-06-04T14:54:18;6.00;;;3.97;;